Time;durP1;ratioP1;P1;durP2;ratioP2;P2;SDS_P1;SDS_P2;PMS_P1;PMS_P2;Temp;Humidity;BMP_temperature;BMP_pressure;BME280_temperature;BME280_humidity;BME280_pressure;Samples;Min_cycle;Max_cycle;Signal;HPM_P1;HPM_P2
2021/09/01 00:02:05;;;;;;;24.90;15.15;;;;;;;12.38;100.00;101311.16;5026544;28;20045;-71
2021/09/01 00:04:49;;;;;;;28.15;15.88;;;;;;;12.36;100.00;101313.13;5013209;28;20087;-71
2021/09/01 00:07:33;;;;;;;30.38;17.48;;;;;;;12.35;100.00;101311.44;5013483;28;20048;-70
2021/09/01 00:10:18;;;;;;;36.22;17.95;;;;;;;12.38;100.00;101311.16;5012263;28;20514;-71
2021/09/01 00:13:03;;;;;;;32.13;17.05;;;;;;;12.37;100.00;101314.81;5012517;28;20080;-71
2021/09/01 00:15:47;;;;;;;29.70;16.67;;;;;;;12.33;100.00;101315.22;5012155;28;20598;-69
2021/09/01 00:18:31;;;;;;;25.60;15.18;;;;;;;12.29;100.00;101321.81;5012246;28;20120;-71
2021/09/01 00:21:14;;;;;;;24.60;14.05;;;;;;;12.24;100.00;101314.19;4998530;28;20527;-71
2021/09/01 00:23:59;;;;;;;28.95;16.60;;;;;;;12.21;100.00;101319.75;5012225;28;20049;-71
2021/09/01 00:26:44;;;;;;;28.08;15.65;;;;;;;12.17;100.00;101312.97;5026243;28;20044;-72
2021/09/01 00:29:28;;;;;;;29.95;17.35;;;;;;;12.15;100.00;101314.94;5011923;28;20084;-71
2021/09/01 00:32:13;;;;;;;27.23;15.38;;;;;;;12.16;100.00;101315.78;5012214;28;20104;-72
2021/09/01 00:34:57;;;;;;;35.85;17.70;;;;;;;12.12;100.00;101320.56;5012206;28;20053;-71
2021/09/01 00:37:41;;;;;;;26.45;15.48;;;;;;;12.08;100.00;101316.44;5012057;28;20184;-71
2021/09/01 00:40:24;;;;;;;29.40;16.50;;;;;;;12.07;100.00;101321.91;5013146;28;20053;-71
2021/09/01 00:43:08;;;;;;;28.20;15.50;;;;;;;12.04;100.00;101312.31;5012769;28;20069;-71
2021/09/01 00:45:53;;;;;;;27.15;15.75;;;;;;;12.04;100.00;101306.13;5012304;28;20512;-71
2021/09/01 00:48:37;;;;;;;28.65;16.88;;;;;;;12.03;100.00;101301.75;5012039;28;20409;-71
2021/09/01 00:51:22;;;;;;;30.52;16.08;;;;;;;12.04;100.00;101315.00;5012076;28;20053;-72
2021/09/01 00:54:06;;;;;;;28.73;14.82;;;;;;;12.01;100.00;101307.25;5012710;28;20473;-71
2021/09/01 00:56:55;;;;;;;27.83;15.88;;;;;;;12.00;100.00;101310.88;5026196;28;20052;-71
2021/09/01 00:59:41;;;;;;;26.13;15.57;;;;;;;11.99;100.00;101309.19;5025630;28;20279;-71
2021/09/01 01:02:25;;;;;;;31.30;16.27;;;;;;;11.98;100.00;101309.31;5011976;28;20075;-71
2021/09/01 01:05:09;;;;;;;24.60;14.55;;;;;;;11.96;100.00;101306.78;5011957;28;20056;-72
2021/09/01 01:07:53;;;;;;;24.10;14.13;;;;;;;11.94;100.00;101306.06;5013424;28;20049;-72
2021/09/01 01:10:38;;;;;;;23.75;15.20;;;;;;;11.92;100.00;101304.47;5001543;28;20510;-71
2021/09/01 01:13:22;;;;;;;25.63;13.90;;;;;;;11.92;100.00;101308.00;5015088;28;20045;-72
2021/09/01 01:16:06;;;;;;;26.77;14.30;;;;;;;11.90;100.00;101309.94;5015303;28;20412;-71
2021/09/01 01:18:51;;;;;;;26.33;14.23;;;;;;;11.90;100.00;101304.59;5015056;28;20053;-71
2021/09/01 01:21:35;;;;;;;25.42;15.23;;;;;;;11.92;100.00;101302.66;5015135;28;20534;-72
2021/09/01 01:24:20;;;;;;;30.35;15.52;;;;;;;11.91;100.00;101300.13;5015152;28;20045;-71
2021/09/01 01:27:04;;;;;;;27.75;14.80;;;;;;;11.89;100.00;101302.91;5029320;28;20100;-71
2021/09/01 01:29:48;;;;;;;29.52;16.50;;;;;;;11.86;100.00;101299.66;5004175;22;20551;-71
2021/09/01 01:32:32;;;;;;;26.63;15.25;;;;;;;11.84;100.00;101299.78;4995153;28;20104;-70
2021/09/01 01:35:36;;;;;;;25.77;14.25;;;;;;;11.84;100.00;101313.13;4995377;28;20464;-71
2021/09/01 01:38:20;;;;;;;23.65;14.10;;;;;;;11.83;100.00;101298.09;4996343;28;20042;-71
2021/09/01 01:41:05;;;;;;;23.70;14.05;;;;;;;11.82;100.00;101304.41;4981186;28;20092;-71
2021/09/01 01:43:49;;;;;;;27.77;14.25;;;;;;;11.82;100.00;101315.09;4995156;28;20126;-72
2021/09/01 01:46:33;;;;;;;21.52;14.07;;;;;;;11.81;100.00;101316.06;4995371;28;20568;-71
2021/09/01 01:49:18;;;;;;;27.05;15.55;;;;;;;11.80;100.00;101308.19;4995004;28;20164;-71
2021/09/01 01:52:03;;;;;;;22.23;13.90;;;;;;;11.77;100.00;101309.28;4995021;28;20046;-71
2021/09/01 01:54:47;;;;;;;25.45;15.30;;;;;;;11.75;100.00;101311.22;4995049;28;20065;-71
2021/09/01 01:57:31;;;;;;;25.70;15.05;;;;;;;11.74;100.00;101314.00;4994778;28;20057;-71
2021/09/01 02:00:15;;;;;;;23.55;14.60;;;;;;;11.73;100.00;101318.53;4994572;28;20049;-71
2021/09/01 02:03:00;;;;;;;26.40;13.98;;;;;;;11.72;100.00;101316.84;4995869;28;20042;-71
2021/09/01 02:05:44;;;;;;;27.00;14.65;;;;;;;11.71;100.00;101325.81;4994480;28;20060;-71
2021/09/01 02:08:28;;;;;;;22.35;14.30;;;;;;;11.70;100.00;101321.47;4980996;28;20101;-71
2021/09/01 02:11:11;;;;;;;23.30;14.55;;;;;;;11.66;100.00;101317.31;4995663;28;20107;-71
2021/09/01 02:13:55;;;;;;;26.63;15.07;;;;;;;11.63;100.00;101312.25;4995570;28;20092;-71
2021/09/01 02:16:39;;;;;;;24.33;14.65;;;;;;;11.62;100.00;101305.19;4995573;28;20129;-71
2021/09/01 02:19:23;;;;;;;23.73;14.32;;;;;;;11.62;100.00;101302.53;4994098;28;20100;-72
2021/09/01 02:22:07;;;;;;;21.33;13.15;;;;;;;11.59;100.00;101313.44;4994280;28;20045;-69
2021/09/01 02:24:51;;;;;;;20.95;12.80;;;;;;;11.56;100.00;101313.69;4994444;28;20113;-71
2021/09/01 02:27:35;;;;;;;22.67;13.52;;;;;;;11.53;100.00;101316.59;4994100;28;20073;-71
2021/09/01 02:30:21;;;;;;;28.73;14.60;;;;;;;11.50;100.00;101316.88;5008096;28;20068;-71
2021/09/01 02:33:06;;;;;;;23.73;14.45;;;;;;;11.49;100.00;101319.66;5013845;28;20463;-71
2021/09/01 02:35:50;;;;;;;24.65;14.27;;;;;;;11.49;100.00;101309.78;5013808;28;20048;-71
2021/09/01 02:38:33;;;;;;;25.33;14.90;;;;;;;11.48;100.00;101307.28;5013657;28;20463;-71
2021/09/01 02:41:17;;;;;;;31.30;14.98;;;;;;;11.48;100.00;101318.78;5013712;28;20071;-71
2021/09/01 02:44:01;;;;;;;28.70;15.02;;;;;;;11.45;100.00;101319.03;5014563;28;20111;-71
2021/09/01 02:46:45;;;;;;;24.95;14.50;;;;;;;11.43;100.00;101315.66;4999703;28;20080;-71
2021/09/01 02:49:29;;;;;;;25.55;15.05;;;;;;;11.43;100.00;101322.81;4999535;28;20519;-71
2021/09/01 02:52:13;;;;;;;25.23;15.05;;;;;;;11.40;100.00;101326.59;5014504;28;20048;-71
2021/09/01 02:54:57;;;;;;;24.10;14.65;;;;;;;11.38;100.00;101333.84;4999448;28;20076;-71
2021/09/01 02:57:41;;;;;;;27.45;15.60;;;;;;;11.36;100.00;101335.81;5014443;28;20165;-71
2021/09/01 03:00:25;;;;;;;25.77;14.70;;;;;;;11.35;100.00;101343.94;5013112;28;20052;-71
2021/09/01 03:03:09;;;;;;;25.17;14.80;;;;;;;11.32;100.00;101334.38;5012971;28;20108;-71
2021/09/01 03:05:53;;;;;;;32.65;14.90;;;;;;;11.32;100.00;101338.84;5014481;28;20069;-71
2021/09/01 03:08:36;;;;;;;24.90;15.13;;;;;;;11.30;100.00;101341.66;5000207;28;20099;-70
2021/09/01 03:11:20;;;;;;;24.92;15.98;;;;;;;11.29;100.00;101339.94;5013088;28;20072;-71
2021/09/01 03:14:04;;;;;;;29.92;16.40;;;;;;;11.28;100.00;101348.06;4999539;28;20125;-71
2021/09/01 03:16:48;;;;;;;27.42;16.38;;;;;;;11.28;100.00;101335.56;5013126;28;20053;-72
2021/09/01 03:19:32;;;;;;;25.20;16.05;;;;;;;11.28;100.00;101343.56;4998851;28;20051;-71
2021/09/01 03:22:16;;;;;;;34.00;18.85;;;;;;;11.30;100.00;101340.78;5012681;28;20049;-71
2021/09/01 03:25:00;;;;;;;33.70;18.05;;;;;;;11.30;100.00;101335.44;5013717;28;20045;-72
2021/09/01 03:27:44;;;;;;;27.73;17.58;;;;;;;11.30;100.00;101330.09;5012652;28;20109;-70
2021/09/01 03:30:28;;;;;;;35.97;17.15;;;;;;;11.32;100.00;101338.84;5012186;28;20044;-71
2021/09/01 03:33:12;;;;;;;35.92;18.88;;;;;;;11.30;100.00;101330.97;4999211;28;20048;-71
2021/09/01 03:35:55;;;;;;;31.50;18.63;;;;;;;11.31;100.00;101332.66;5012801;28;20103;-71
2021/09/01 03:38:39;;;;;;;36.35;20.23;;;;;;;11.32;100.00;101338.84;5012768;28;20084;-71
2021/09/01 03:41:23;;;;;;;;;;;;;;;11.32;100.00;101339.72;5013133;28;20048;-71
2021/09/01 03:44:07;;;;;;;33.58;19.77;;;;;;;11.34;100.00;101329.75;5013347;28;19971;-72
2021/09/01 03:46:51;;;;;;;45.35;23.90;;;;;;;11.39;100.00;101334.72;4998559;28;20060;-71
2021/09/01 03:49:35;;;;;;;37.70;21.35;;;;;;;11.39;100.00;101335.53;4998809;28;20169;-72
2021/09/01 03:52:19;;;;;;;39.92;23.20;;;;;;;11.41;100.00;101338.09;5012649;28;20045;-71
2021/09/01 03:55:07;;;;;;;47.78;23.95;;;;;;;11.43;100.00;101342.34;5012341;28;20534;-71
2021/09/01 03:57:51;;;;;;;49.20;24.45;;;;;;;11.45;100.00;101337.72;5012615;28;20103;-70
2021/09/01 04:00:35;;;;;;;41.38;23.20;;;;;;;11.50;100.00;101342.69;5012412;28;20053;-71
2021/09/01 04:03:19;;;;;;;46.92;24.92;;;;;;;11.52;100.00;101341.63;4998403;28;20436;-71
2021/09/01 04:06:05;;;;;;;38.05;22.80;;;;;;;11.52;100.00;101346.09;5012506;28;20053;-71
2021/09/01 04:08:48;;;;;;;46.15;24.58;;;;;;;11.52;100.00;101352.28;5012400;28;20133;-70
2021/09/01 04:11:32;;;;;;;44.45;25.48;;;;;;;11.52;100.00;101352.28;5012722;28;20052;-71
2021/09/01 04:14:16;;;;;;;44.92;24.40;;;;;;;11.55;100.00;101357.38;5012393;28;20061;-71
2021/09/01 04:17:00;;;;;;;45.25;25.85;;;;;;;11.56;100.00;101358.25;5013362;28;20061;-71
2021/09/01 04:19:44;;;;;;;46.35;25.95;;;;;;;11.59;100.00;101368.69;5012292;28;20153;-71
2021/09/01 04:22:28;;;;;;;47.50;26.00;;;;;;;11.60;100.00;101359.72;5013164;28;20115;-71
2021/09/01 04:25:12;;;;;;;44.65;26.42;;;;;;;11.61;100.00;101356.94;5012303;28;20081;-72
2021/09/01 04:27:56;;;;;;;44.38;26.83;;;;;;;11.62;100.00;101361.28;5012222;28;20092;-70
2021/09/01 04:30:40;;;;;;;41.35;25.48;;;;;;;11.64;100.00;101362.00;4997986;28;20128;-71
2021/09/01 04:33:24;;;;;;;48.05;25.25;;;;;;;11.64;100.00;101358.47;5012058;28;20049;-71
2021/09/01 04:36:08;;;;;;;45.97;26.73;;;;;;;11.65;100.00;101363.72;5012498;28;20125;-71
2021/09/01 04:38:52;;;;;;;48.95;27.30;;;;;;;11.66;100.00;101369.91;5012117;28;20096;-71
2021/09/01 04:41:36;;;;;;;49.53;26.52;;;;;;;11.66;100.00;101354.72;5013080;28;20519;-69
2021/09/01 04:44:20;;;;;;;42.58;25.27;;;;;;;11.66;100.00;101361.91;5015884;28;20546;-71
2021/09/01 04:47:04;;;;;;;;;;;;;;;11.65;100.00;101353.03;5002708;28;20084;-71
2021/09/01 04:49:48;;;;;;;41.70;23.85;;;;;;;11.64;100.00;101367.34;5001797;28;19967;-70
2021/09/01 04:52:32;;;;;;;45.60;25.63;;;;;;;11.64;100.00;101369.16;5016752;28;20108;-71
2021/09/01 04:55:17;;;;;;;39.75;24.13;;;;;;;11.66;100.00;101370.75;5015954;28;20044;-71
2021/09/01 04:58:01;;;;;;;49.05;27.63;;;;;;;11.67;100.00;101371.59;5002186;28;20056;-71
2021/09/01 05:00:45;;;;;;;45.90;25.50;;;;;;;11.69;100.00;101375.81;5015295;28;20149;-71
2021/09/01 05:03:29;;;;;;;47.72;26.45;;;;;;;11.71;100.00;101371.22;5001659;28;20125;-71
2021/09/01 05:06:13;;;;;;;48.17;26.33;;;;;;;11.74;100.00;101372.78;5015349;28;20049;-71
2021/09/01 05:08:57;;;;;;;45.40;25.55;;;;;;;11.75;100.00;101372.66;5001585;28;20408;-70
2021/09/01 05:11:41;;;;;;;45.83;28.10;;;;;;;11.79;100.00;101371.44;5001379;28;20056;-71
2021/09/01 05:14:25;;;;;;;46.10;27.15;;;;;;;11.82;100.00;101373.88;5016232;28;20048;-71
2021/09/01 05:17:09;;;;;;;48.97;27.50;;;;;;;11.87;100.00;101371.66;5015066;28;20084;-72
2021/09/01 05:19:53;;;;;;;48.00;26.35;;;;;;;11.91;100.00;101369.59;5001363;28;20048;-71
2021/09/01 05:22:37;;;;;;;42.63;24.83;;;;;;;11.94;100.00;101378.22;5015716;28;20511;-71
2021/09/01 05:25:22;;;;;;;45.80;25.45;;;;;;;11.99;100.00;101385.84;5001043;28;20060;-71
2021/09/01 05:28:06;;;;;;;48.00;25.75;;;;;;;12.02;100.00;101386.44;5001015;28;20515;-71
2021/09/01 05:30:51;;;;;;;53.00;27.80;;;;;;;12.09;100.00;101390.28;5000844;28;20130;-72
2021/09/01 05:33:37;;;;;;;52.65;30.08;;;;;;;12.18;100.00;101389.53;5001116;28;20065;-71
2021/09/01 05:36:22;;;;;;;55.40;30.65;;;;;;;12.26;100.00;101389.75;5015860;28;20056;-71
2021/09/01 05:39:06;;;;;;;54.08;30.23;;;;;;;12.32;100.00;101386.56;5014709;28;20076;-72
2021/09/01 05:41:50;;;;;;;52.78;31.85;;;;;;;12.41;100.00;101391.13;5015120;28;20048;-71
2021/09/01 05:44:35;;;;;;;57.90;31.98;;;;;;;12.53;100.00;101379.41;5014521;28;20157;-71
2021/09/01 05:47:21;;;;;;;48.00;29.30;;;;;;;12.61;100.00;101382.28;5000957;28;20471;-71
2021/09/01 05:50:06;;;;;;;54.00;30.83;;;;;;;12.71;100.00;101383.19;5014356;28;20064;-71
2021/09/01 05:52:51;;;;;;;49.33;29.73;;;;;;;12.81;100.00;101389.44;5014910;28;20404;-71
2021/09/01 05:55:37;;;;;;;47.60;29.38;;;;;;;12.91;100.00;101379.66;5014875;28;20070;-71
2021/09/01 05:58:21;;;;;;;50.83;28.63;;;;;;;13.02;100.00;101384.94;5014339;28;20056;-71
2021/09/01 06:01:06;;;;;;;50.08;28.25;;;;;;;13.08;100.00;101389.78;5014110;28;20056;-71
2021/09/01 06:03:50;;;;;;;40.55;27.25;;;;;;;13.17;100.00;101388.97;5014375;28;20060;-71
2021/09/01 06:06:38;;;;;;;43.70;26.27;;;;;;;13.24;100.00;101393.66;5014080;28;20520;-71
2021/09/01 06:09:23;;;;;;;40.72;25.88;;;;;;;13.35;100.00;101395.41;5000262;28;20511;-71
2021/09/01 06:12:08;;;;;;;43.08;25.58;;;;;;;13.43;100.00;101404.47;5014293;28;20149;-71
2021/09/01 06:14:52;;;;;;;44.75;27.35;;;;;;;13.52;100.00;101402.78;5000462;28;20119;-71
2021/09/01 06:17:36;;;;;;;38.28;24.25;;;;;;;13.62;100.00;101409.03;5000580;28;20049;-71
2021/09/01 06:20:20;;;;;;;37.47;24.25;;;;;;;13.67;100.00;101406.81;5015046;28;20054;-71
2021/09/01 06:23:04;;;;;;;42.50;25.30;;;;;;;13.76;100.00;101414.03;5013694;28;20100;-72
2021/09/01 06:25:48;;;;;;;41.05;25.83;;;;;;;13.86;100.00;101417.59;5014004;28;20052;-71
2021/09/01 06:28:32;;;;;;;34.40;23.42;;;;;;;13.93;100.00;101407.97;5013705;28;20075;-72
2021/09/01 06:31:16;;;;;;;35.20;24.15;;;;;;;14.04;100.00;101413.22;5013669;28;20115;-72
2021/09/01 06:34:00;;;;;;;37.33;25.05;;;;;;;14.14;100.00;101414.09;5000337;28;20044;-71
2021/09/01 06:36:44;;;;;;;36.95;24.40;;;;;;;14.22;100.00;101403.53;5013830;28;20408;-71
2021/09/01 06:39:28;;;;;;;34.03;23.20;;;;;;;14.30;100.00;101411.75;4999724;28;20566;-72
2021/09/01 06:42:12;;;;;;;31.60;22.17;;;;;;;14.39;100.00;101409.06;5013653;28;20052;-71
2021/09/01 06:44:56;;;;;;;29.85;22.10;;;;;;;14.50;100.00;101410.75;5013668;28;20103;-72
2021/09/01 06:47:49;;;;;;;42.42;21.52;;;;;;;14.61;100.00;101403.38;4999550;28;20095;-71
2021/09/01 06:50:33;;;;;;;28.35;21.15;;;;;;;14.71;100.00;101414.13;5014216;28;20049;-71
2021/09/01 06:53:17;;;;;;;30.67;20.40;;;;;;;14.80;100.00;101405.22;4999671;28;20124;-71
2021/09/01 06:56:01;;;;;;;31.73;18.83;;;;;;;14.86;100.00;101415.38;5013277;28;20053;-71
2021/09/01 06:58:46;;;;;;;29.73;17.85;;;;;;;14.95;100.00;101411.81;4999532;28;20145;-71
2021/09/01 07:01:30;;;;;;;28.27;19.60;;;;;;;15.00;100.00;101409.56;5013570;28;20095;-71
2021/09/01 07:04:14;;;;;;;22.92;17.92;;;;;;;15.07;100.00;101426.78;5013817;28;20095;-71
2021/09/01 07:06:57;;;;;;;27.45;17.15;;;;;;;15.20;100.00;101419.28;4998943;28;20432;-71
2021/09/01 07:09:41;;;;;;;22.35;16.15;;;;;;;15.28;100.00;101422.03;5013120;28;20088;-71
2021/09/01 07:12:27;;;;;;;25.15;16.67;;;;;;;15.37;100.00;101429.25;5013254;28;20048;-71
2021/09/01 07:15:11;;;;;;;24.25;15.93;;;;;;;15.46;100.00;101436.44;5012910;28;20154;-70
2021/09/01 07:17:55;;;;;;;22.13;15.52;;;;;;;15.55;100.00;101428.38;4999229;28;20099;-71
2021/09/01 07:20:39;;;;;;;25.77;16.05;;;;;;;15.57;100.00;101437.94;5012787;28;20057;-71
2021/09/01 07:23:23;;;;;;;21.38;14.85;;;;;;;15.71;100.00;101434.78;5012903;28;20048;-70
2021/09/01 07:26:10;;;;;;;19.15;14.18;;;;;;;15.81;100.00;101430.22;5012713;28;20060;-71
2021/09/01 07:28:54;;;;;;;20.42;13.65;;;;;;;15.90;100.00;101434.69;4998987;28;20463;-71
2021/09/01 07:31:38;;;;;;;20.13;14.80;;;;;;;16.03;100.00;101429.78;5133942;23;20064;-71
2021/09/01 07:34:22;;;;;;;21.13;13.95;;;;;;;16.08;100.00;101435.53;5018624;28;20412;-71
2021/09/01 07:37:05;;;;;;;20.83;14.68;;;;;;;16.12;100.00;101436.97;5032617;28;20114;-71
2021/09/01 07:39:49;;;;;;;20.33;13.90;;;;;;;16.22;100.00;101437.75;5032195;28;20100;-71
2021/09/01 07:42:33;;;;;;;18.02;13.23;;;;;;;16.33;100.00;101442.03;5032392;28;20486;-70
2021/09/01 07:45:19;;;;;;;18.77;13.68;;;;;;;16.38;100.00;101440.63;5018192;28;20094;-70
2021/09/01 07:48:03;;;;;;;21.38;13.57;;;;;;;16.47;100.00;101442.38;5032145;28;20044;-71
2021/09/01 07:50:47;;;;;;;21.98;13.02;;;;;;;16.56;100.00;101441.47;5032380;28;20586;-71
2021/09/01 07:53:31;;;;;;;17.80;12.27;;;;;;;16.63;100.00;101447.06;5033295;28;20051;-71
2021/09/01 07:56:15;;;;;;;18.02;11.38;;;;;;;16.73;100.00;101447.84;5032061;28;20052;-71
2021/09/01 07:58:59;;;;;;;14.93;11.23;;;;;;;16.81;100.00;101448.78;5033335;28;20048;-71
2021/09/01 08:01:44;;;;;;;15.60;11.70;;;;;;;16.91;100.00;101446.81;5018539;28;20134;-71
2021/09/01 08:04:28;;;;;;;20.23;11.75;;;;;;;17.03;100.00;101458.19;5032468;28;20562;-71
2021/09/01 08:07:12;;;;;;;17.17;12.27;;;;;;;17.17;100.00;101457.59;5018277;28;20547;-71
2021/09/01 08:09:56;;;;;;;17.67;11.70;;;;;;;17.22;100.00;101464.25;5033442;28;20044;-71
2021/09/01 08:12:41;;;;;;;14.73;11.13;;;;;;;17.30;100.00;101466.97;5018068;28;20048;-71
2021/09/01 08:15:25;;;;;;;14.57;10.38;;;;;;;17.41;100.00;101460.53;5018401;28;20051;-71
2021/09/01 08:18:08;;;;;;;17.90;10.40;;;;;;;17.51;100.00;101461.25;5036048;28;20091;-71
2021/09/01 08:20:52;;;;;;;13.27;10.25;;;;;;;17.62;100.00;101464.50;5022063;28;20411;-71
2021/09/01 08:23:36;;;;;;;17.73;10.15;;;;;;;17.61;97.14;101462.81;5036067;28;20040;-69
2021/09/01 08:26:20;;;;;;;18.02;10.75;;;;;;;17.70;97.98;101466.41;5036086;28;20128;-71
2021/09/01 08:29:04;;;;;;;18.33;10.65;;;;;;;17.81;97.75;101466.97;5036732;28;20048;-71
2021/09/01 08:31:48;;;;;;;15.52;9.95;;;;;;;17.89;96.88;101467.00;5052751;28;20130;-71
2021/09/01 08:34:32;;;;;;;;;;;;;;;17.98;95.11;101468.72;5055919;28;20040;-71
2021/09/01 08:37:16;;;;;;;14.63;10.45;;;;;;;18.03;95.37;101471.75;5041960;28;19920;-71
2021/09/01 08:40:01;;;;;;;12.25;10.15;;;;;;;18.11;93.95;101460.19;5055418;28;20051;-71
2021/09/01 08:42:46;;;;;;;14.00;9.25;;;;;;;18.29;95.49;101469.88;5041215;28;20048;-71
2021/09/01 08:45:30;;;;;;;15.40;9.23;;;;;;;18.39;94.88;101470.56;5055359;28;20051;-71
2021/09/01 08:48:15;;;;;;;14.82;9.55;;;;;;;18.55;91.17;101466.03;5055511;28;20040;-70
2021/09/01 08:50:59;;;;;;;14.32;9.90;;;;;;;18.71;91.50;101473.31;5055189;28;20048;-71
2021/09/01 08:53:43;;;;;;;13.98;10.35;;;;;;;18.85;89.29;101475.34;5055264;28;20039;-71
2021/09/01 08:56:28;;;;;;;11.60;9.20;;;;;;;18.97;89.16;101471.31;5056319;28;20124;-71
2021/09/01 08:59:12;;;;;;;14.57;9.95;;;;;;;19.10;87.96;101466.22;5041297;28;20475;-71
2021/09/01 09:01:56;;;;;;;14.20;10.32;;;;;;;19.25;86.28;101469.94;5054991;28;20124;-71
2021/09/01 09:04:40;;;;;;;10.95;9.43;;;;;;;19.39;86.12;101467.41;5054972;28;20044;-71
2021/09/01 09:07:24;;;;;;;10.75;8.95;;;;;;;19.53;84.67;101463.16;5041072;28;20048;-71
2021/09/01 09:10:33;;;;;;;16.60;9.70;;;;;;;19.75;84.33;101462.41;5056381;28;20099;-71
2021/09/01 09:13:30;;;;;;;14.32;9.75;;;;;;;19.95;83.97;101463.66;5040623;28;20043;-71
2021/09/01 09:16:14;;;;;;;16.80;10.13;;;;;;;20.04;80.43;101459.94;5041148;28;20095;-71
2021/09/01 09:18:58;;;;;;;12.40;10.18;;;;;;;20.24;79.74;101459.34;5056005;28;20103;-71
2021/09/01 09:21:42;;;;;;;;;;;;;;;20.36;77.56;101452.50;5054997;28;20533;-71
2021/09/01 09:24:28;;;;;;;15.17;9.67;;;;;;;20.42;76.03;101456.34;5040795;28;20055;-71
2021/09/01 09:27:12;;;;;;;13.52;9.85;;;;;;;20.50;76.01;101453.59;5054595;28;20399;-69
2021/09/01 09:29:56;;;;;;;13.32;8.90;;;;;;;20.78;76.30;101463.72;5054028;28;20494;-71
2021/09/01 09:33:00;;;;;;;11.93;9.18;;;;;;;21.11;73.79;101445.31;5056000;28;20470;-70
2021/09/01 09:36:02;;;;;;;11.90;8.90;;;;;;;21.49;72.25;101454.06;5040683;28;20040;-71
2021/09/01 09:38:46;;;;;;;11.55;8.13;;;;;;;21.83;71.25;101457.13;5054482;28;20048;-71
2021/09/01 09:41:30;;;;;;;;;;;;;;;22.10;68.70;101442.84;5054655;28;20236;-71
2021/09/01 09:44:26;;;;;;;11.15;8.55;;;;;;;22.61;66.66;101440.94;5040289;28;19939;-71
2021/09/01 09:47:10;;;;;;;11.48;8.18;;;;;;;23.16;63.46;101436.47;5040284;28;20122;-70
2021/09/01 09:50:07;;;;;;;;;;;;;;;23.81;63.50;101426.00;5054697;28;20175;-70
2021/09/01 09:52:51;;;;;;;12.38;8.55;;;;;;;24.97;58.33;101436.44;5040255;28;20054;-71
2021/09/01 09:55:35;;;;;;;10.05;8.55;;;;;;;26.68;51.88;101433.88;5040301;28;20123;-70
2021/09/01 09:58:19;;;;;;;;;;;;;;;28.75;45.92;101425.28;5040273;28;20064;-69
2021/09/01 10:01:05;;;;;;;10.65;7.43;;;;;;;30.88;40.84;101429.56;5040103;28;20282;-69
2021/09/01 10:03:49;;;;;;;10.50;8.48;;;;;;;32.73;36.21;101418.41;5039960;28;20499;-69
2021/09/01 10:06:33;;;;;;;10.82;7.85;;;;;;;-139.48;100.00;61774.03;5053832;28;20075;-69
2021/09/01 10:09:17;;;;;;;8.00;6.93;;;;;;;-139.48;100.00;61774.03;5054057;28;20051;-69
2021/09/01 10:12:02;;;;;;;11.13;8.15;;;;;;;-139.48;100.00;61774.03;5054092;28;20067;-69
2021/09/01 10:14:46;;;;;;;8.80;7.90;;;;;;;-139.48;100.00;61774.03;5039649;28;20186;-69
2021/09/01 10:17:29;;;;;;;9.48;8.55;;;;;;;-139.48;100.00;61774.03;5039685;28;20179;-69
2021/09/01 10:20:18;;;;;;;8.48;7.18;;;;;;;-139.48;100.00;61774.03;5053782;28;20098;-70
2021/09/01 10:23:04;;;;;;;9.13;8.23;;;;;;;-139.48;100.00;61774.03;5053614;28;20044;-69
2021/09/01 10:25:51;;;;;;;13.15;8.23;;;;;;;-139.48;100.00;61774.03;5039541;28;20043;-70
2021/09/01 10:28:35;;;;;;;11.65;7.57;;;;;;;33.85;33.79;101418.75;5053499;28;20063;-69
2021/09/01 10:31:21;;;;;;;8.95;7.20;;;;;;;38.19;27.32;101407.09;5053108;28;20523;-69
2021/09/01 10:34:19;;;;;;;9.32;8.35;;;;;;;38.62;25.47;101414.31;5039443;28;20601;-70
2021/09/01 10:37:03;;;;;;;8.45;7.50;;;;;;;38.63;25.83;101410.38;5039328;28;20074;-69
2021/09/01 10:39:47;;;;;;;11.05;7.88;;;;;;;38.22;25.78;101409.28;5053115;28;20051;-69
2021/09/01 10:42:40;;;;;;;9.00;8.00;;;;;;;38.51;25.38;101404.44;5054621;28;20051;-70
2021/09/01 10:45:54;;;;;;;8.18;7.38;;;;;;;39.02;25.25;101405.31;5039239;28;20044;-69
2021/09/01 10:48:59;;;;;;;10.13;7.97;;;;;;;39.59;24.69;101402.88;5053955;28;20039;-70
2021/09/01 10:51:51;;;;;;;8.80;7.65;;;;;;;40.00;24.07;101396.16;5025199;28;20044;-70
2021/09/01 10:54:37;;;;;;;9.57;8.10;;;;;;;39.27;25.00;101402.09;5039359;28;20059;-69
2021/09/01 10:57:27;;;;;;;12.23;7.43;;;;;;;39.02;24.52;101410.88;5038740;28;20043;-69
2021/09/01 11:00:16;;;;;;;8.15;7.35;;;;;;;37.91;25.55;101394.06;5039058;28;20088;-70
2021/09/01 11:03:00;;;;;;;8.82;7.95;;;;;;;38.37;25.31;101392.38;5053137;28;20207;-69
2021/09/01 11:05:46;;;;;;;8.32;7.47;;;;;;;37.72;25.56;101394.03;5038664;28;20102;-69
2021/09/01 11:08:30;;;;;;;10.73;7.90;;;;;;;38.10;25.72;101397.75;5052621;28;20048;-69
2021/09/01 11:11:14;;;;;;;10.85;7.40;;;;;;;38.42;25.83;101398.69;5052581;28;20043;-70
2021/09/01 11:13:57;;;;;;;8.52;7.63;;;;;;;39.15;25.14;101390.56;5053461;28;20518;-69
2021/09/01 11:16:41;;;;;;;9.48;7.68;;;;;;;39.98;23.59;101387.25;5053456;28;20095;-70
2021/09/01 11:19:26;;;;;;;10.43;7.75;;;;;;;39.67;24.02;101391.81;5053379;28;20048;-69
2021/09/01 11:22:11;;;;;;;9.55;7.18;;;;;;;40.42;22.36;101384.59;5024423;28;20056;-68
2021/09/01 11:25:10;;;;;;;13.75;8.10;;;;;;;39.83;23.36;101392.34;5053529;28;20416;-69
2021/09/01 11:27:57;;;;;;;8.32;7.25;;;;;;;40.61;22.17;101390.88;5038377;28;20048;-70
2021/09/01 11:30:41;;;;;;;8.73;7.43;;;;;;;40.71;22.42;101385.03;5052233;28;20060;-67
2021/09/01 11:33:25;;;;;;;7.53;6.28;;;;;;;40.71;21.71;101392.63;5038315;28;20047;-69
2021/09/01 11:36:09;;;;;;;11.52;7.30;;;;;;;40.71;22.29;101384.25;5053465;28;20056;-70
2021/09/01 11:38:58;;;;;;;8.70;7.00;;;;;;;41.79;21.25;101383.59;5052374;28;20082;-70
2021/09/01 11:41:44;;;;;;;6.70;6.10;;;;;;;41.92;20.39;101374.25;5053173;28;20510;-70
2021/09/01 11:44:28;;;;;;;7.18;6.05;;;;;;;42.84;19.35;101383.91;5052276;28;20106;-70
2021/09/01 11:47:16;;;;;;;7.70;6.05;;;;;;;43.38;19.34;101388.78;5038402;28;20525;-70
2021/09/01 11:50:00;;;;;;;6.63;6.03;;;;;;;43.60;18.59;101385.75;5051883;28;20515;-70
2021/09/01 11:52:51;;;;;;;7.78;6.32;;;;;;;43.24;18.81;101383.38;5052315;28;20608;-70
2021/09/01 11:55:36;;;;;;;8.30;6.50;;;;;;;43.66;18.93;101390.03;5038031;28;20526;-70
2021/09/01 11:58:20;;;;;;;7.53;6.82;;;;;;;43.32;18.49;101378.91;5052212;28;20113;-70
2021/09/01 12:01:06;;;;;;;7.63;6.93;;;;;;;43.50;18.18;101372.09;5051790;28;20048;-70
2021/09/01 12:03:50;;;;;;;8.25;6.80;;;;;;;42.80;19.20;101372.53;5052051;28;20458;-70
2021/09/01 12:06:35;;;;;;;8.68;7.13;;;;;;;42.46;19.27;101357.66;5051905;28;20063;-70
2021/09/01 12:09:20;;;;;;;7.05;6.35;;;;;;;42.08;19.22;101359.44;5037891;28;20055;-69
2021/09/01 12:12:06;;;;;;;7.43;6.72;;;;;;;42.11;19.88;101370.03;5037947;28;20561;-69
2021/09/01 12:15:11;;;;;;;8.40;7.57;;;;;;;42.22;19.31;101357.34;5052638;28;20502;-68
2021/09/01 12:18:00;;;;;;;7.90;7.10;;;;;;;41.83;20.17;101368.59;5038106;28;20040;-70
2021/09/01 12:20:54;;;;;;;8.05;6.47;;;;;;;40.67;20.60;101358.03;5037801;28;20495;-69
2021/09/01 12:23:38;;;;;;;7.22;6.53;;;;;;;40.77;20.68;101358.63;5052638;28;20040;-70
2021/09/01 12:26:22;;;;;;;7.95;6.45;;;;;;;41.00;20.31;101354.69;5037679;28;20047;-69
2021/09/01 12:29:06;;;;;;;12.52;6.53;;;;;;;40.97;20.52;101354.50;5037781;28;20410;-70
2021/09/01 12:31:51;;;;;;;7.60;6.78;;;;;;;40.55;20.59;101353.03;5051460;28;20476;-70